Decoded Metar for YBHM (HAMILTON ISLAND in AUSTRALIA) (IATA:N/A) | Meteo·Mobile Aviation Weather
aviador You're here:

YBHM Decoded Metar

HAMILTON ISLAND in AUSTRALIA
Report Time2019-07-24 05:00:00
UTC Time2019-07-24 05:32:17
Flight Rules vfr VFR
Wind150° at 11 kt
W.Decomp.*RWY 14: 11.0 kt HW 0.4 kt RCW
Visibility9999 m
Phenomena:N/A
Clouds:N/A
Expected CloudBase > 1,600 ft AGL from Temp-Dew spread
CeilingNone
Temp21°C (ISA +6)
Dew Point17°C (78% RH)
AAT19.4°C
QNH1020 hPa
Density Alt741 ft
Elevation16 ft
Report Wrong Elevation
Raw Report
YBHM 240500Z AUTO 15011KT 9999 // NCD 21/17 Q1020=

Extra information for YBHM:More info

Metar Taf Metar & Taf Last 4 Metars F.Rules Stats Wind Profile Meteogram Temp Stats Airport Information Weather charts Add Link Nearby VenuesMetar ALERT Operation Metar Decoded Social comments